Time;durP1;ratioP1;P1;durP2;ratioP2;P2;SDS_P1;SDS_P2;PMS_P1;PMS_P2;Temp;Humidity;BMP_temperature;BMP_pressure;BME280_temperature;BME280_humidity;BME280_pressure;Samples;Min_cycle;Max_cycle;Signal;HPM_P1;HPM_P2
2022/10/08 00:00:56;;;;;;;11.30;3.00;;;;;;;14.69;59.89;101544.44;5028715;28;20424;-66
2022/10/08 00:03:24;;;;;;;9.68;2.80;;;;;;;14.68;59.88;101542.78;5033240;28;20465;-66
2022/10/08 00:05:56;;;;;;;12.68;3.03;;;;;;;14.61;60.38;101542.97;5034567;28;20191;-66
2022/10/08 00:08:22;;;;;;;9.40;2.97;;;;;;;14.56;60.52;101536.50;5031667;28;20033;-66
2022/10/08 00:10:53;;;;;;;11.63;3.03;;;;;;;14.60;60.24;101538.50;5030841;28;20132;-66
2022/10/08 00:13:18;;;;;;;9.85;2.63;;;;;;;14.60;59.95;101532.06;5034513;28;20025;-66
2022/10/08 00:15:44;;;;;;;15.27;3.50;;;;;;;14.61;60.17;101539.34;5032550;28;20388;-65
2022/10/08 00:18:09;;;;;;;12.23;2.90;;;;;;;14.61;60.36;101540.19;5033970;28;20037;-66
2022/10/08 00:20:34;;;;;;;11.80;3.08;;;;;;;14.62;60.35;101533.50;5033810;28;20088;-66
2022/10/08 00:23:00;;;;;;;11.15;2.97;;;;;;;14.63;60.23;101539.94;5033398;28;20038;-66
2022/10/08 00:25:26;;;;;;;14.52;2.85;;;;;;;14.60;60.31;101541.28;5025783;28;20038;-66
2022/10/08 00:27:51;;;;;;;12.00;3.10;;;;;;;14.64;60.68;101536.03;5028906;28;20040;-66
2022/10/08 00:30:16;;;;;;;14.13;3.17;;;;;;;14.60;60.67;101546.03;5034175;28;20083;-66
2022/10/08 00:32:43;;;;;;;11.77;3.30;;;;;;;14.66;60.52;101539.41;5033040;28;20131;-66
2022/10/08 00:35:08;;;;;;;8.90;2.60;;;;;;;14.64;60.63;101544.41;5034544;28;20033;-66
2022/10/08 00:37:33;;;;;;;12.52;3.20;;;;;;;14.58;61.35;101542.66;5032559;28;20044;-65
2022/10/08 00:39:58;;;;;;;12.88;2.97;;;;;;;14.62;61.29;101527.91;5033111;28;20037;-66
2022/10/08 00:42:24;;;;;;;9.25;2.90;;;;;;;14.56;61.32;101533.72;5033600;28;20025;-66
2022/10/08 00:44:53;;;;;;;15.43;3.25;;;;;;;14.62;61.56;101535.44;5034022;28;20603;-66
2022/10/08 00:47:28;;;;;;;9.82;2.95;;;;;;;14.64;61.30;101541.63;5033941;28;20037;-66
2022/10/08 00:49:59;;;;;;;11.93;3.20;;;;;;;14.65;61.58;101541.34;5033205;28;20064;-66
2022/10/08 00:52:29;;;;;;;9.55;3.08;;;;;;;14.64;61.52;101538.81;5031710;28;20503;-65
2022/10/08 00:54:56;;;;;;;11.52;3.00;;;;;;;14.64;61.51;101541.63;5032996;28;20112;-66
2022/10/08 00:57:21;;;;;;;11.38;3.17;;;;;;;14.67;61.40;101552.28;5032784;28;20033;-66
2022/10/08 00:59:47;;;;;;;12.48;2.97;;;;;;;14.69;61.54;101547.25;5033373;28;20037;-66
2022/10/08 01:02:13;;;;;;;12.27;2.97;;;;;;;14.69;61.53;101550.88;5032236;28;20033;-66
2022/10/08 01:04:40;;;;;;;11.25;3.00;;;;;;;14.64;62.15;101553.63;5033653;28;20040;-66
2022/10/08 01:07:31;;;;;;;8.43;2.50;;;;;;;14.69;61.65;101566.81;5032747;28;20036;-66
2022/10/08 01:10:14;;;;;;;14.55;2.88;;;;;;;14.67;62.24;101553.09;5030557;28;20037;-66
2022/10/08 01:12:58;;;;;;;10.85;2.80;;;;;;;14.67;62.34;101564.28;5030743;28;20037;-66
2022/10/08 01:16:14;;;;;;;9.45;3.00;;;;;;;14.70;62.35;101580.53;5032352;28;20084;-66
2022/10/08 01:19:09;;;;;;;9.35;2.85;;;;;;;14.64;64.84;101591.91;5001725;28;20049;-66
2022/10/08 01:21:46;;;;;;;9.27;2.60;;;;;;;14.61;65.96;101575.66;5001187;28;20045;-66
2022/10/08 01:25:31;;;;;;;10.63;2.90;;;;;;;14.64;65.57;101575.97;5032467;28;20468;-66
2022/10/08 01:27:37;;;;;;;11.73;3.08;;;;;;;14.62;66.04;101582.94;5031272;28;20033;-66
2022/10/08 01:30:08;;;;;;;11.02;2.97;;;;;;;14.57;66.52;101577.28;5027264;28;20121;-66
2022/10/08 01:32:40;;;;;;;12.73;3.22;;;;;;;14.57;66.66;101577.28;5028171;28;20122;-66
2022/10/08 01:35:14;;;;;;;8.00;2.45;;;;;;;14.58;66.40;101573.38;5033717;28;20033;-66
2022/10/08 01:37:42;;;;;;;13.15;3.13;;;;;;;14.51;66.71;101576.41;5032821;28;20056;-66
2022/10/08 01:40:19;;;;;;;10.35;2.85;;;;;;;14.57;66.12;101563.31;5031241;28;20091;-66
2022/10/08 01:42:47;;;;;;;9.25;3.17;;;;;;;14.50;66.70;101563.53;5032566;28;20060;-65
2022/10/08 01:45:21;;;;;;;9.90;2.75;;;;;;;14.45;67.06;101572.66;5031831;28;20481;-66
2022/10/08 01:47:48;;;;;;;6.90;2.53;;;;;;;14.46;66.95;101571.56;5031807;28;20116;-66
2022/10/08 01:50:24;;;;;;;6.65;2.88;;;;;;;14.47;66.84;101573.25;5032647;28;20033;-66
2022/10/08 01:53:02;;;;;;;9.40;2.88;;;;;;;14.44;66.89;101579.34;5031815;28;20029;-66
2022/10/08 01:55:40;;;;;;;11.13;2.95;;;;;;;14.49;66.25;101581.41;5031889;28;20485;-66
2022/10/08 01:58:13;;;;;;;12.70;3.08;;;;;;;14.39;67.03;101584.91;5031557;28;20045;-66
2022/10/08 02:00:40;;;;;;;12.95;2.85;;;;;;;14.43;66.50;101583.25;5030847;28;20115;-66
2022/10/08 02:03:05;;;;;;;11.63;2.88;;;;;;;14.39;67.12;101590.47;5030627;28;20029;-66
2022/10/08 02:05:34;;;;;;;13.77;2.72;;;;;;;14.36;67.15;101596.56;5031774;28;20025;-66
2022/10/08 02:08:00;;;;;;;8.93;2.60;;;;;;;14.38;67.75;101588.81;5029216;28;20369;-66
2022/10/08 02:10:26;;;;;;;8.05;2.30;;;;;;;14.38;67.87;101588.81;5032941;28;20056;-66
2022/10/08 02:12:52;;;;;;;4.95;2.05;;;;;;;14.34;67.38;101593.19;5031977;28;20040;-66
2022/10/08 02:15:30;;;;;;;10.30;2.53;;;;;;;14.34;67.72;101592.34;5030956;28;20025;-66
2022/10/08 02:18:09;;;;;;;8.45;2.17;;;;;;;14.31;67.73;101587.31;5030507;28;20040;-66
2022/10/08 02:20:54;;;;;;;7.38;2.10;;;;;;;14.35;67.03;101588.47;5030527;28;20044;-66
2022/10/08 02:23:28;;;;;;;11.40;2.08;;;;;;;14.29;67.81;101581.13;5029035;28;20065;-67
2022/10/08 02:25:59;;;;;;;7.43;2.35;;;;;;;14.28;67.30;101588.66;5030993;28;20029;-66
2022/10/08 02:28:51;;;;;;;7.22;1.90;;;;;;;14.24;67.65;101593.91;5031102;28;20029;-66
2022/10/08 02:31:29;;;;;;;7.35;1.88;;;;;;;14.25;67.71;101592.81;5031681;28;20095;-66
2022/10/08 02:34:18;;;;;;;6.75;2.08;;;;;;;14.21;67.71;101593.59;5031730;28;20075;-65
2022/10/08 02:36:50;;;;;;;5.18;1.83;;;;;;;14.15;67.47;101600.22;5029449;28;20060;-66
2022/10/08 02:39:18;;;;;;;8.70;2.00;;;;;;;14.11;67.93;101599.91;5032229;28;20025;-66
2022/10/08 02:41:49;;;;;;;5.30;1.80;;;;;;;14.06;68.34;101596.19;5030295;28;20028;-66
2022/10/08 02:44:34;;;;;;;10.27;2.10;;;;;;;14.11;67.88;101585.06;5027575;28;20041;-66
2022/10/08 02:47:04;;;;;;;6.82;2.00;;;;;;;14.12;68.55;101592.38;5025125;28;20064;-66
2022/10/08 02:49:37;;;;;;;9.27;2.25;;;;;;;14.06;68.68;101596.19;5029001;28;20116;-66
2022/10/08 02:52:05;;;;;;;8.20;2.00;;;;;;;14.09;68.50;101584.50;5025849;28;20034;-66
2022/10/08 02:54:37;;;;;;;4.03;1.95;;;;;;;14.07;68.02;101583.91;5026872;28;20033;-66
2022/10/08 02:57:06;;;;;;;6.80;1.83;;;;;;;14.07;68.10;101578.31;5021330;28;20041;-66
2022/10/08 02:59:32;;;;;;;6.03;1.92;;;;;;;14.04;68.25;101585.28;5017650;28;20030;-66
2022/10/08 03:02:04;;;;;;;6.95;1.83;;;;;;;14.05;68.38;101588.91;5027351;28;20045;-66
2022/10/08 03:04:55;;;;;;;7.13;2.43;;;;;;;14.08;67.80;101577.22;5025521;28;20059;-66
2022/10/08 03:07:23;;;;;;;8.48;2.42;;;;;;;13.94;68.55;101583.19;5028879;28;20084;-66
2022/10/08 03:09:50;;;;;;;5.57;1.90;;;;;;;13.97;68.24;101587.41;5030143;28;20061;-66
2022/10/08 03:12:16;;;;;;;6.40;2.05;;;;;;;13.96;68.46;101585.72;5030055;28;20276;-66
2022/10/08 03:14:46;;;;;;;9.43;2.45;;;;;;;13.92;68.54;101596.56;5031075;28;20029;-67
2022/10/08 03:17:17;;;;;;;5.45;2.10;;;;;;;13.94;68.69;101599.91;5030685;28;20119;-66
2022/10/08 03:19:42;;;;;;;7.22;2.05;;;;;;;13.94;68.56;101599.09;5028985;28;20041;-66
2022/10/08 03:22:08;;;;;;;4.22;1.77;;;;;;;13.92;69.09;101599.34;5029860;28;20396;-66
2022/10/08 03:24:34;;;;;;;5.55;1.92;;;;;;;13.96;69.27;101597.72;5030304;28;20060;-67
2022/10/08 03:27:00;;;;;;;4.85;2.03;;;;;;;13.94;69.13;101601.88;5030782;28;20108;-66
2022/10/08 03:29:25;;;;;;;6.32;1.63;;;;;;;13.93;69.26;101605.78;5031624;28;20187;-66
2022/10/08 03:31:50;;;;;;;6.90;1.95;;;;;;;13.95;68.84;101606.34;5029770;28;20022;-66
2022/10/08 03:34:16;;;;;;;7.78;1.90;;;;;;;13.92;69.01;101610.50;5018491;28;20041;-66
2022/10/08 03:36:41;;;;;;;4.35;1.92;;;;;;;13.85;69.42;101615.44;5026207;28;20030;-67
2022/10/08 03:39:09;;;;;;;7.93;2.17;;;;;;;13.83;69.69;101623.19;5029819;28;21991;-66
2022/10/08 03:41:35;;;;;;;5.68;2.00;;;;;;;13.86;69.75;101617.09;5030661;28;20033;-66
2022/10/08 03:44:00;;;;;;;7.95;1.90;;;;;;;13.83;69.65;101617.63;5030495;28;20033;-66
2022/10/08 03:46:25;;;;;;;8.75;2.30;;;;;;;13.81;70.01;101624.56;5029163;28;20539;-67
2022/10/08 03:48:50;;;;;;;8.30;2.30;;;;;;;13.84;69.75;101629.66;5028923;28;20492;-66
2022/10/08 03:51:17;;;;;;;6.72;2.17;;;;;;;13.80;69.68;101629.31;5030591;28;20044;-66
2022/10/08 03:53:43;;;;;;;6.60;2.08;;;;;;;13.81;69.42;101627.38;5029671;28;20033;-66
2022/10/08 03:56:20;;;;;;;10.07;2.22;;;;;;;13.77;69.56;101626.19;5030465;28;20113;-67
2022/10/08 03:58:46;;;;;;;5.55;1.92;;;;;;;13.76;69.73;101619.75;5030907;28;20034;-66
2022/10/08 04:01:14;;;;;;;7.57;2.20;;;;;;;13.72;70.23;101630.59;5029888;28;20022;-67
2022/10/08 04:03:39;;;;;;;3.95;1.70;;;;;;;13.73;70.33;101631.44;5018318;28;20462;-66
2022/10/08 04:06:05;;;;;;;7.72;2.30;;;;;;;13.69;69.99;101639.47;5030132;28;20068;-66
2022/10/08 04:08:32;;;;;;;4.80;2.15;;;;;;;13.70;70.22;101631.94;5028747;28;20029;-66
2022/10/08 04:11:02;;;;;;;5.82;2.28;;;;;;;13.65;69.97;101643.88;5029392;28;20049;-66
2022/10/08 04:13:27;;;;;;;6.07;2.47;;;;;;;13.66;70.15;101628.81;5029298;28;20036;-66
2022/10/08 04:15:58;;;;;;;9.13;3.20;;;;;;;13.68;70.06;101639.72;5029321;28;20030;-67
2022/10/08 04:18:25;;;;;;;5.78;2.58;;;;;;;13.63;70.46;101637.69;5030403;28;20069;-66
2022/10/08 04:20:50;;;;;;;7.78;2.80;;;;;;;13.66;70.66;101651.13;5030629;28;20551;-66
2022/10/08 04:23:15;;;;;;;6.95;2.90;;;;;;;13.69;70.68;101638.63;5030988;28;20030;-66
2022/10/08 04:25:48;;;;;;;7.32;3.80;;;;;;;13.63;71.02;101648.84;5030941;28;20064;-66
2022/10/08 04:28:13;;;;;;;8.82;5.93;;;;;;;13.64;71.25;101649.72;5020848;28;20125;-66
2022/10/08 04:30:39;;;;;;;6.47;5.85;;;;;;;13.60;71.52;101649.38;5011903;28;20109;-66
2022/10/08 04:33:04;;;;;;;13.63;7.57;;;;;;;13.59;72.06;101652.41;5029868;28;20059;-66
2022/10/08 04:35:30;;;;;;;9.98;8.32;;;;;;;13.63;71.65;101656.38;5028596;28;20076;-66
2022/10/08 04:37:55;;;;;;;12.10;9.68;;;;;;;13.61;72.24;101659.41;5030529;28;20385;-67
2022/10/08 04:40:20;;;;;;;14.20;9.80;;;;;;;13.64;72.16;101661.72;5029850;28;20144;-66
2022/10/08 04:42:50;;;;;;;16.27;11.15;;;;;;;13.60;72.39;101659.69;5027266;28;20044;-66
2022/10/08 04:45:16;;;;;;;15.10;11.30;;;;;;;13.66;72.34;101658.66;5028421;28;20484;-67
2022/10/08 04:47:42;;;;;;;17.23;13.95;;;;;;;13.63;72.75;101667.53;5029299;28;20029;-66
2022/10/08 04:50:08;;;;;;;19.65;14.93;;;;;;;13.65;72.95;101674.56;5032895;28;20026;-66
2022/10/08 04:52:33;;;;;;;23.60;16.40;;;;;;;13.66;72.64;101675.38;5025521;28;20040;-66
2022/10/08 04:54:58;;;;;;;27.55;18.48;;;;;;;13.67;73.16;101682.66;5015482;28;20037;-67
2022/10/08 04:57:23;;;;;;;28.65;20.02;;;;;;;13.61;73.10;101683.69;5027404;28;20495;-66
2022/10/08 04:59:49;;;;;;;31.08;21.00;;;;;;;13.62;73.12;101689.00;5031257;28;20041;-67
2022/10/08 05:02:14;;;;;;;27.10;20.88;;;;;;;13.69;72.68;101686.03;5029002;28;20489;-66
2022/10/08 05:04:39;;;;;;;31.38;22.30;;;;;;;13.63;73.34;101690.69;5032318;28;20397;-67
2022/10/08 05:07:04;;;;;;;36.30;24.27;;;;;;;13.62;73.43;101691.78;5033228;28;20025;-67
2022/10/08 05:09:30;;;;;;;31.95;24.58;;;;;;;13.63;73.68;101690.69;5032759;28;20046;-68
2022/10/08 05:11:55;;;;;;;35.80;25.52;;;;;;;13.62;73.87;101693.72;5030910;28;20040;-66
2022/10/08 05:14:20;;;;;;;41.47;27.02;;;;;;;13.63;74.17;101695.41;5032412;28;20116;-66
2022/10/08 05:16:47;;;;;;;39.50;26.75;;;;;;;13.62;73.68;101700.16;5029481;28;20033;-66
2022/10/08 05:19:12;;;;;;;39.13;27.42;;;;;;;13.66;73.79;101703.28;5033340;28;20021;-67
2022/10/08 05:21:37;;;;;;;25.45;17.90;;;;;;;13.75;73.30;101698.97;5032215;28;20053;-65
2022/10/08 05:24:07;;;;;;;38.08;27.40;;;;;;;13.71;73.47;101704.22;5032061;28;20047;-66
2022/10/08 05:26:38;;;;;;;41.47;29.10;;;;;;;13.68;73.91;101712.25;5031011;28;20793;-67
2022/10/08 05:29:04;;;;;;;46.10;29.83;;;;;;;13.64;73.57;101711.06;5033237;28;20036;-65
2022/10/08 05:31:33;;;;;;;40.33;29.50;;;;;;;13.68;73.82;101706.69;5031668;28;20037;-67
2022/10/08 05:33:59;;;;;;;40.95;28.08;;;;;;;13.66;73.93;101718.06;5033037;28;20021;-66
2022/10/08 05:36:27;;;;;;;46.13;29.30;;;;;;;13.64;73.75;101711.91;5032415;28;20503;-68
2022/10/08 05:38:53;;;;;;;42.65;29.88;;;;;;;13.66;73.66;101714.44;5031268;28;20181;-66
2022/10/08 05:41:28;;;;;;;48.03;31.23;;;;;;;13.65;73.68;101718.34;5033398;28;20032;-66
2022/10/08 05:43:55;;;;;;;45.00;29.17;;;;;;;13.64;73.94;101722.25;5032440;28;20033;-66
2022/10/08 05:46:24;;;;;;;40.10;29.80;;;;;;;13.65;73.57;101735.06;5030738;28;20385;-67
2022/10/08 05:48:52;;;;;;;45.75;30.38;;;;;;;13.63;73.74;101731.69;5032164;28;20163;-66
2022/10/08 05:51:17;;;;;;;47.13;30.35;;;;;;;13.62;73.76;101735.56;5030773;28;20049;-66
2022/10/08 05:53:46;;;;;;;43.40;30.40;;;;;;;13.62;73.93;101735.56;5026695;28;20021;-67
2022/10/08 05:56:12;;;;;;;45.03;30.30;;;;;;;13.63;73.80;101737.25;5013331;28;20028;-67
2022/10/08 05:58:39;;;;;;;45.17;30.92;;;;;;;13.60;73.68;101751.75;5013374;28;20026;-67
2022/10/08 06:01:19;;;;;;;46.15;29.45;;;;;;;13.65;73.19;101751.81;5011860;28;20026;-67
2022/10/08 06:03:50;;;;;;;42.55;30.02;;;;;;;13.60;73.45;101754.53;5027055;28;20036;-66
2022/10/08 06:06:17;;;;;;;44.90;30.75;;;;;;;13.62;73.89;101755.94;5019974;28;20036;-66
2022/10/08 06:08:42;;;;;;;46.25;30.60;;;;;;;13.58;73.56;101767.88;5012395;28;20022;-65
2022/10/08 06:11:07;;;;;;;45.20;30.15;;;;;;;13.61;73.61;101761.78;5013413;28;20030;-66
2022/10/08 06:13:33;;;;;;;43.20;29.80;;;;;;;13.56;73.57;101765.34;5012582;28;20028;-66
2022/10/08 06:16:05;;;;;;;45.47;29.27;;;;;;;13.59;73.34;101766.75;5013144;28;20389;-66
2022/10/08 06:18:33;;;;;;;45.90;29.70;;;;;;;13.53;73.56;101777.00;5013000;28;20370;-66
2022/10/08 06:21:03;;;;;;;47.53;29.63;;;;;;;13.51;73.41;101784.75;5024645;28;20029;-66
2022/10/08 06:23:29;;;;;;;44.40;29.88;;;;;;;13.53;73.22;101790.09;5032810;28;20033;-66
2022/10/08 06:25:54;;;;;;;45.13;29.50;;;;;;;13.51;73.29;101788.38;5032811;28;20028;-66
2022/10/08 06:28:19;;;;;;;44.78;29.25;;;;;;;13.50;73.22;101789.47;5032135;28;20041;-66
2022/10/08 06:30:44;;;;;;;47.45;31.85;;;;;;;13.49;73.25;101787.78;5032704;28;20026;-66
2022/10/08 06:33:10;;;;;;;46.08;31.63;;;;;;;13.53;73.68;101792.88;5032633;28;20476;-66
2022/10/08 06:35:36;;;;;;;47.85;33.15;;;;;;;13.47;73.64;101800.28;5020163;28;20022;-66
2022/10/08 06:38:03;;;;;;;47.60;31.05;;;;;;;13.49;73.23;101804.53;5014385;28;20396;-66
2022/10/08 06:40:37;;;;;;;48.78;30.83;;;;;;;13.49;73.84;101814.84;5027817;28;20361;-66
2022/10/08 06:43:06;;;;;;;42.00;29.67;;;;;;;13.51;73.85;101810.69;5030079;28;20037;-66
2022/10/08 06:45:32;;;;;;;43.97;29.88;;;;;;;13.53;73.49;101818.00;5017370;28;20038;-66
2022/10/08 06:47:57;;;;;;;45.13;28.38;;;;;;;13.51;73.71;101827.44;5012535;28;20393;-66
2022/10/08 06:50:22;;;;;;;47.25;28.55;;;;;;;13.48;73.79;101833.53;5011538;28;20366;-66
2022/10/08 06:52:47;;;;;;;46.83;28.70;;;;;;;13.51;73.69;101835.78;5012438;28;20022;-66
2022/10/08 06:55:15;;;;;;;39.53;26.98;;;;;;;13.51;74.06;101835.78;5012510;28;20026;-66
2022/10/08 06:57:41;;;;;;;39.63;27.42;;;;;;;13.48;74.02;101844.69;5011722;28;20025;-67
2022/10/08 07:00:07;;;;;;;40.65;27.30;;;;;;;13.52;74.38;101856.19;5012664;28;20064;-67
2022/10/08 07:02:32;;;;;;;42.97;27.20;;;;;;;13.54;74.44;101855.94;5012188;28;20033;-66
2022/10/08 07:04:57;;;;;;;35.78;25.88;;;;;;;13.57;74.27;101856.28;5011861;28;20048;-66
2022/10/08 07:07:23;;;;;;;36.55;25.60;;;;;;;13.59;73.99;101875.53;5021587;28;20025;-66
2022/10/08 07:09:48;;;;;;;38.38;25.25;;;;;;;13.61;74.31;101873.38;5026440;28;20034;-66
2022/10/08 07:12:13;;;;;;;34.58;23.90;;;;;;;13.59;73.94;101887.56;5020075;28;20025;-66
2022/10/08 07:14:39;;;;;;;31.13;21.83;;;;;;;13.61;73.74;101879.78;5019848;28;20021;-67
2022/10/08 07:17:04;;;;;;;35.17;21.92;;;;;;;13.59;73.92;101881.13;5015642;28;20037;-69
2022/10/08 07:19:29;;;;;;;30.80;21.30;;;;;;;13.61;73.74;101885.38;5022076;28;20030;-67
2022/10/08 07:21:54;;;;;;;27.45;17.63;;;;;;;13.66;73.87;101887.41;5027860;28;20370;-68
2022/10/08 07:24:20;;;;;;;32.42;19.27;;;;;;;13.63;73.48;101893.47;5016694;28;20045;-70
2022/10/08 07:26:45;;;;;;;30.63;20.00;;;;;;;13.67;73.68;101900.25;5013785;28;20029;-67
2022/10/08 07:29:13;;;;;;;36.65;22.67;;;;;;;13.70;73.04;101894.19;5011686;28;20045;-68
2022/10/08 07:31:39;;;;;;;33.00;19.95;;;;;;;13.73;72.72;101900.13;5021192;28;20025;-68
2022/10/08 07:34:08;;;;;;;27.92;17.95;;;;;;;13.78;72.81;101904.94;5030078;28;20032;-68
2022/10/08 07:36:34;;;;;;;28.48;17.58;;;;;;;13.79;72.53;101906.63;5025846;28;20110;-68
2022/10/08 07:39:02;;;;;;;24.10;15.13;;;;;;;13.86;72.43;101910.13;5026625;28;20108;-68
2022/10/08 07:41:31;;;;;;;25.85;14.02;;;;;;;13.90;71.94;101910.47;5017785;28;20064;-67
2022/10/08 07:43:58;;;;;;;14.40;11.35;;;;;;;13.97;71.86;101922.34;5021398;28;20124;-66
2022/10/08 07:46:25;;;;;;;16.15;10.40;;;;;;;14.06;71.44;101922.78;5016992;28;20022;-69
2022/10/08 07:48:53;;;;;;;16.90;10.32;;;;;;;14.19;70.94;101926.13;5031396;28;20025;-61
2022/10/08 07:51:19;;;;;;;17.02;9.77;;;;;;;14.28;70.27;101931.31;5028240;28;20428;-67
2022/10/08 07:53:45;;;;;;;14.60;8.43;;;;;;;14.36;69.83;101926.13;5030386;28;20022;-67
2022/10/08 07:56:13;;;;;;;16.30;7.78;;;;;;;14.41;69.48;101925.38;5031229;28;20033;-67
2022/10/08 07:58:39;;;;;;;13.85;6.43;;;;;;;14.46;68.28;101929.13;5031538;28;20396;-67
2022/10/08 08:01:07;;;;;;;14.68;6.47;;;;;;;14.48;68.18;101932.50;5015378;28;20500;-66
2022/10/08 08:03:33;;;;;;;15.57;5.60;;;;;;;14.60;67.92;101937.19;5011570;28;20414;-67
2022/10/08 08:06:08;;;;;;;16.27;5.30;;;;;;;14.69;68.03;101941.25;5010828;28;20413;-67
2022/10/08 08:08:35;;;;;;;13.50;5.00;;;;;;;14.69;66.07;101944.88;5030779;28;20030;-65
2022/10/08 08:11:02;;;;;;;12.13;4.38;;;;;;;14.80;66.06;101947.84;5030958;28;20062;-67
2022/10/08 08:13:29;;;;;;;13.82;4.28;;;;;;;14.91;65.89;101942.19;5029941;28;20444;-66
2022/10/08 08:15:56;;;;;;;9.82;4.10;;;;;;;15.01;65.55;101949.84;5027819;28;20037;-67
2022/10/08 08:18:21;;;;;;;12.45;4.75;;;;;;;15.10;66.04;101945.53;5031244;28;20068;-67
2022/10/08 08:20:46;;;;;;;11.32;3.95;;;;;;;15.22;65.71;101951.88;5029613;28;20049;-67
2022/10/08 08:23:11;;;;;;;14.38;4.05;;;;;;;15.30;65.02;101958.97;5031909;28;20037;-67
2022/10/08 08:25:37;;;;;;;10.88;3.60;;;;;;;15.40;64.88;101958.25;5034875;28;20075;-66
2022/10/08 08:28:02;;;;;;;14.57;4.65;;;;;;;15.45;64.41;101966.75;5034456;28;20112;-67
2022/10/08 08:30:27;;;;;;;9.27;3.80;;;;;;;15.56;64.60;101965.78;5034908;28;20172;-67
2022/10/08 08:32:52;;;;;;;11.27;4.20;;;;;;;15.66;64.19;101968.72;5034961;28;20104;-67
2022/10/08 08:35:18;;;;;;;11.68;3.95;;;;;;;15.74;64.82;101974.97;5033103;28;20365;-67
2022/10/08 08:37:43;;;;;;;9.57;4.15;;;;;;;15.81;64.13;101981.25;5034661;28;20108;-67
2022/10/08 08:40:09;;;;;;;8.90;3.50;;;;;;;15.86;63.19;101989.69;5033961;28;20072;-67
2022/10/08 08:42:45;;;;;;;13.35;3.60;;;;;;;15.91;63.27;101985.00;5030983;28;21681;-67
2022/10/08 08:45:20;;;;;;;9.75;3.40;;;;;;;15.98;63.40;101993.19;5032489;28;20033;-67
2022/10/08 08:47:55;;;;;;;12.00;3.20;;;;;;;16.11;62.89;101995.63;5029213;28;20125;-67
2022/10/08 08:50:28;;;;;;;10.82;3.25;;;;;;;16.14;61.97;102003.47;5033915;28;20021;-67
2022/10/08 08:52:55;;;;;;;9.70;2.80;;;;;;;16.27;60.89;102010.63;5034688;28;20087;-67
2022/10/08 08:55:31;;;;;;;6.72;2.10;;;;;;;16.41;60.91;101997.88;5034119;28;20053;-67
2022/10/08 08:58:04;;;;;;;8.68;2.38;;;;;;;16.42;60.13;101996.75;5034434;28;20025;-67
2022/10/08 09:00:40;;;;;;;7.75;2.28;;;;;;;16.57;60.30;102010.09;5025409;28;20038;-67
2022/10/08 09:03:17;;;;;;;7.38;2.05;;;;;;;16.65;59.39;102017.16;5024261;28;20033;-67
2022/10/08 09:05:46;;;;;;;7.50;2.05;;;;;;;16.61;58.11;101997.22;5018407;28;20053;-67
2022/10/08 09:08:36;;;;;;;8.73;2.17;;;;;;;16.74;59.76;102006.34;5016415;28;20096;-66
2022/10/08 09:11:03;;;;;;;9.65;2.33;;;;;;;16.76;58.23;102006.94;5020970;28;20045;-66
2022/10/08 09:13:40;;;;;;;7.93;1.70;;;;;;;16.74;57.42;102014.75;5027154;28;20369;-66
2022/10/08 09:16:08;;;;;;;6.28;1.67;;;;;;;16.91;56.10;102015.50;5032407;28;20032;-66
2022/10/08 09:18:34;;;;;;;7.38;1.73;;;;;;;17.00;56.04;102022.28;5030851;28;20025;-67
2022/10/08 09:20:59;;;;;;;5.97;1.42;;;;;;;17.08;54.70;102023.75;5031591;28;20048;-66
2022/10/08 09:23:25;;;;;;;6.65;1.48;;;;;;;17.11;54.23;102034.44;5030740;28;20045;-66
2022/10/08 09:26:18;;;;;;;7.70;1.70;;;;;;;17.21;56.41;102031.69;5025087;28;20033;-67
2022/10/08 09:28:48;;;;;;;;;;;;;;;17.31;57.82;102040.19;5028212;28;20046;-67
2022/10/08 09:31:39;;;;;;;3.67;1.02;;;;;;;17.34;55.70;102039.66;5030498;28;20304;-66
2022/10/08 09:34:17;;;;;;;5.82;1.23;;;;;;;17.37;54.50;102038.25;5032717;28;20480;-65
2022/10/08 09:37:01;;;;;;;9.90;1.60;;;;;;;17.31;54.18;102045.81;5032331;28;20022;-67
2022/10/08 09:39:29;;;;;;;8.07;1.50;;;;;;;17.27;53.67;102046.63;5015513;28;20050;-64
2022/10/08 09:42:07;;;;;;;7.85;1.63;;;;;;;17.34;54.66;102056.50;5026366;28;20384;-66
2022/10/08 09:44:56;;;;;;;9.85;2.08;;;;;;;17.40;54.59;102048.97;5030925;28;20461;-66
2022/10/08 09:47:23;;;;;;;8.65;1.63;;;;;;;17.49;53.41;102060.53;5028966;28;20033;-66
2022/10/08 09:50:05;;;;;;;7.07;1.75;;;;;;;17.35;52.81;102068.56;5033273;28;20071;-67
2022/10/08 09:52:32;;;;;;;6.47;1.60;;;;;;;17.13;52.47;102071.47;5023985;28;20048;-67
2022/10/08 09:55:05;;;;;;;6.50;1.48;;;;;;;17.07;52.49;102078.16;5018497;28;20030;-67
2022/10/08 09:57:32;;;;;;;6.90;1.70;;;;;;;16.95;52.15;102078.34;5031828;28;20036;-66
2022/10/08 10:00:04;;;;;;;10.65;2.42;;;;;;;16.85;53.54;102081.88;5031982;28;20033;-67
2022/10/08 10:02:36;;;;;;;8.75;2.08;;;;;;;16.69;52.01;102078.03;5032481;28;20416;-66
2022/10/08 10:05:04;;;;;;;;;;;;;;;16.82;54.96;102088.03;5033078;28;20057;-65
2022/10/08 10:07:44;;;;;;;8.20;1.85;;;;;;;16.64;52.61;102079.97;5030112;28;20269;-66
2022/10/08 10:10:37;;;;;;;9.25;2.20;;;;;;;16.61;53.42;102086.09;5030354;28;20046;-66
2022/10/08 10:13:10;;;;;;;5.03;1.55;;;;;;;16.73;52.83;102086.81;5030282;28;20029;-66
2022/10/08 10:15:42;;;;;;;3.22;1.10;;;;;;;16.86;51.05;102079.94;5032540;28;20052;-66
2022/10/08 10:18:14;;;;;;;7.65;1.25;;;;;;;17.04;50.67;102084.31;5032065;28;20075;-65
2022/10/08 10:21:01;;;;;;;6.50;1.50;;;;;;;17.15;51.74;102084.13;5028065;28;20160;-63
2022/10/08 10:23:35;;;;;;;6.82;1.30;;;;;;;17.28;50.09;102080.03;5027037;28;20037;-63
2022/10/08 10:26:10;;;;;;;3.80;1.30;;;;;;;17.39;50.81;102086.56;5031690;28;20116;-64
2022/10/08 10:28:46;;;;;;;7.03;1.42;;;;;;;17.46;51.18;102087.19;5029922;28;20033;-64
2022/10/08 10:31:22;;;;;;;4.22;1.13;;;;;;;17.35;50.57;102091.88;5029377;28;20576;-63
2022/10/08 10:34:11;;;;;;;6.35;1.30;;;;;;;17.30;51.06;102100.25;5029455;28;20041;-61
2022/10/08 10:36:42;;;;;;;5.45;1.33;;;;;;;17.31;50.43;102107.56;5019565;28;20400;-67
2022/10/08 10:39:25;;;;;;;8.20;1.20;;;;;;;17.37;50.29;102095.28;5023215;28;20615;-61
2022/10/08 10:41:53;;;;;;;;;;;;;;;17.56;52.59;102100.44;5047101;28;20492;-67
2022/10/08 10:44:25;;;;;;;4.68;1.33;;;;;;;17.59;49.35;102097.94;5022012;28;19939;-67
2022/10/08 10:46:53;;;;;;;6.65;1.63;;;;;;;17.50;48.80;102098.72;5028860;28;20674;-67
2022/10/08 10:49:39;;;;;;;9.35;1.25;;;;;;;17.57;49.87;102105.81;5027257;28;20030;-68
2022/10/08 10:52:35;;;;;;;2.50;1.23;;;;;;;17.56;50.11;102106.06;5031130;28;20555;-65
2022/10/08 10:55:25;;;;;;;5.65;1.10;;;;;;;17.64;48.88;102108.34;5016007;28;20068;-69
2022/10/08 10:57:53;;;;;;;5.97;1.35;;;;;;;17.67;49.13;102107.81;5022495;28;20128;-65
2022/10/08 11:00:25;;;;;;;3.65;1.00;;;;;;;17.71;48.51;102108.97;5026794;28;20029;-66
2022/10/08 11:03:01;;;;;;;2.88;0.98;;;;;;;17.66;48.58;102106.13;5028023;28;20029;-69
2022/10/08 11:05:31;;;;;;;5.50;1.30;;;;;;;17.69;48.29;102108.41;5027288;28;20044;-69
2022/10/08 11:08:34;;;;;;;5.75;1.30;;;;;;;17.65;49.03;102108.09;5020261;28;20407;-70
2022/10/08 11:11:26;;;;;;;4.75;1.20;;;;;;;17.49;48.28;102109.13;5023543;28;20143;-66
2022/10/08 11:13:58;;;;;;;6.93;1.27;;;;;;;17.37;47.09;102114.03;5026791;28;20033;-70
2022/10/08 11:16:39;;;;;;;2.83;1.03;;;;;;;17.45;48.65;102124.81;5029090;28;20064;-68
2022/10/08 11:19:18;;;;;;;7.47;1.30;;;;;;;17.50;46.60;102119.22;5024595;28;20025;-66
2022/10/08 11:21:49;;;;;;;8.90;1.38;;;;;;;17.61;46.54;102109.75;5030748;28;20025;-68
2022/10/08 11:24:45;;;;;;;4.55;1.30;;;;;;;17.72;47.86;102119.06;5027958;28;20060;-65
2022/10/08 11:27:25;;;;;;;4.43;1.25;;;;;;;17.77;46.98;102113.53;5016365;28;20048;-63
2022/10/08 11:30:02;;;;;;;5.47;1.30;;;;;;;17.85;47.20;102118.66;5022475;28;20041;-66
2022/10/08 11:32:29;;;;;;;6.07;1.13;;;;;;;17.74;46.88;102121.63;5021702;28;20056;-67
2022/10/08 11:35:10;;;;;;;6.50;1.40;;;;;;;17.57;47.72;102119.00;5029236;28;20040;-66